Time;durP1;ratioP1;P1;durP2;ratioP2;P2;SDS_P1;SDS_P2;PMS_P1;PMS_P2;Temp;Humidity;BMP_temperature;BMP_pressure;BME280_temperature;BME280_humidity;BME280_pressure;Samples;Min_cycle;Max_cycle;Signal;HPM_P1;HPM_P2
2021/04/07 00:00:24;;;;;;;1.27;1.17;;;1.10;99.90;;;;;;1969352;73;21122;-73
2021/04/07 00:02:50;;;;;;;2.15;1.32;;;1.20;99.90;;;;;;1969336;73;21118;-73
2021/04/07 00:05:16;;;;;;;1.40;1.30;;;1.20;99.90;;;;;;1969236;73;21024;-73
2021/04/07 00:07:48;;;;;;;1.42;1.20;;;1.20;99.90;;;;;;1969231;73;21118;-73
2021/04/07 00:10:13;;;;;;;1.20;1.10;;;1.20;99.90;;;;;;1969003;73;21501;-74
2021/04/07 00:12:39;;;;;;;2.40;0.88;;;1.20;99.90;;;;;;1969253;73;21457;-74
2021/04/07 00:15:05;;;;;;;0.70;0.70;;;1.20;99.90;;;;;;1969275;73;21043;-74
2021/04/07 00:17:32;;;;;;;5.20;1.40;;;1.20;99.90;;;;;;1969289;73;21037;-73
2021/04/07 00:19:58;;;;;;;3.35;1.20;;;1.10;99.90;;;;;;1969187;73;21100;-73
2021/04/07 00:22:24;;;;;;;1.60;1.02;;;1.20;99.90;;;;;;1969199;73;21166;-73
2021/04/07 00:24:50;;;;;;;1.77;1.20;;;1.20;99.90;;;;;;1969206;73;21040;-74
2021/04/07 00:27:18;;;;;;;1.02;0.93;;;1.20;99.90;;;;;;1969212;73;21122;-74
2021/04/07 00:29:44;;;;;;;4.72;2.20;;;1.20;99.90;;;;;;1969176;73;21120;-73
2021/04/07 00:32:10;;;;;;;1.77;1.05;;;1.20;99.90;;;;;;1969284;73;21041;-74
2021/04/07 00:34:36;;;;;;;0.68;0.68;;;1.30;99.90;;;;;;1969194;73;21018;-74
2021/04/07 00:37:02;;;;;;;0.82;0.82;;;1.20;99.90;;;;;;1969286;73;21122;-74
2021/04/07 00:39:28;;;;;;;1.35;1.25;;;1.10;99.90;;;;;;1969138;73;21114;-73
2021/04/07 00:41:54;;;;;;;2.12;1.22;;;1.20;99.90;;;;;;1969304;73;21050;-73
2021/04/07 00:44:21;;;;;;;1.25;1.10;;;1.20;99.90;;;;;;1969346;73;21131;-74
2021/04/07 00:46:47;;;;;;;2.65;1.40;;;1.20;99.90;;;;;;1969320;73;21106;-74
2021/04/07 00:49:13;;;;;;;2.40;1.12;;;1.20;99.90;;;;;;1969315;73;21095;-74
2021/04/07 00:51:39;;;;;;;1.40;0.85;;;1.20;99.90;;;;;;1969120;73;21006;-73
2021/04/07 00:54:05;;;;;;;0.93;0.93;;;1.20;99.90;;;;;;1969303;73;21049;-73
2021/04/07 00:56:31;;;;;;;0.90;0.90;;;1.20;99.90;;;;;;1969271;73;21118;-74
2021/04/07 00:58:57;;;;;;;1.15;1.05;;;1.10;99.90;;;;;;1969262;73;21449;-74
2021/04/07 01:01:23;;;;;;;2.02;1.40;;;1.10;99.90;;;;;;1969195;73;21562;-73
2021/04/07 01:03:50;;;;;;;4.50;1.10;;;1.20;99.90;;;;;;1970224;72;21457;-74
2021/04/07 01:06:16;;;;;;;3.08;1.00;;;1.10;99.90;;;;;;1969502;73;21033;-74
2021/04/07 01:08:42;;;;;;;3.67;1.30;;;1.10;99.90;;;;;;1969167;73;21194;-75
2021/04/07 01:11:08;;;;;;;1.67;0.80;;;1.10;99.90;;;;;;1969308;73;21041;-74
2021/04/07 01:13:34;;;;;;;1.15;1.05;;;1.10;99.90;;;;;;1969331;73;21092;-74
2021/04/07 01:16:00;;;;;;;1.20;1.10;;;1.10;99.90;;;;;;1969337;73;21103;-74
2021/04/07 01:18:26;;;;;;;1.00;1.00;;;1.10;99.90;;;;;;1969240;73;21118;-74
2021/04/07 01:20:53;;;;;;;0.78;0.78;;;1.00;99.90;;;;;;1969281;73;21049;-73
2021/04/07 01:23:19;;;;;;;1.10;1.07;;;1.10;99.90;;;;;;1969385;73;21017;-74
2021/04/07 01:25:45;;;;;;;2.47;1.30;;;1.00;99.90;;;;;;1970409;72;21051;-73
2021/04/07 01:28:11;;;;;;;2.08;1.05;;;1.00;99.90;;;;;;1970139;72;21106;-73
2021/04/07 01:30:45;;;;;;;2.35;1.20;;;1.00;99.90;;;;;;1970478;72;21065;-73
2021/04/07 01:33:05;;;;;;;6.25;1.52;;;0.90;99.90;;;;;;1967808;73;21453;-74
2021/04/07 01:35:31;;;;;;;2.40;1.30;;;0.90;99.90;;;;;;1971652;72;21053;-74
2021/04/07 01:37:57;;;;;;;3.90;1.37;;;0.80;99.90;;;;;;1971092;72;21108;-75
2021/04/07 01:40:23;;;;;;;4.37;1.32;;;0.90;99.90;;;;;;1969413;72;21005;-76
2021/04/07 01:42:49;;;;;;;6.40;1.20;;;0.90;99.90;;;;;;1969339;73;21041;-74
2021/04/07 01:45:15;;;;;;;2.83;1.10;;;0.90;99.90;;;;;;1969217;73;21130;-74
2021/04/07 01:47:41;;;;;;;1.07;1.07;;;1.00;99.90;;;;;;1969259;73;21090;-73
2021/04/07 01:50:08;;;;;;;1.05;1.05;;;0.90;99.90;;;;;;1969276;73;21150;-73
2021/04/07 01:52:34;;;;;;;5.40;1.40;;;0.90;99.90;;;;;;1971620;72;21053;-75
2021/04/07 01:55:00;;;;;;;1.17;1.12;;;0.90;99.90;;;;;;1969298;73;21090;-73
2021/04/07 01:57:26;;;;;;;1.17;1.00;;;0.90;99.90;;;;;;1969246;73;21058;-73
2021/04/07 01:59:52;;;;;;;7.60;1.57;;;0.90;99.90;;;;;;1969259;73;21026;-73
2021/04/07 02:02:18;;;;;;;1.72;1.52;;;0.90;99.90;;;;;;1969246;73;21531;-73
2021/04/07 02:04:44;;;;;;;1.30;1.20;;;1.00;99.90;;;;;;1969333;73;21602;-74
2021/04/07 02:07:10;;;;;;;1.32;1.22;;;1.00;99.90;;;;;;1969230;73;21543;-74
2021/04/07 02:09:37;;;;;;;2.02;1.27;;;0.90;99.90;;;;;;1969314;73;21099;-73
2021/04/07 02:12:03;;;;;;;1.87;1.50;;;0.90;99.90;;;;;;1969310;73;21126;-73
2021/04/07 02:14:29;;;;;;;1.60;1.50;;;0.80;99.90;;;;;;1969213;73;21045;-75
2021/04/07 02:16:55;;;;;;;1.27;1.17;;;0.80;99.90;;;;;;1969176;73;21053;-73
2021/04/07 02:19:21;;;;;;;2.58;1.35;;;0.80;99.90;;;;;;1969206;73;21049;-73
2021/04/07 02:21:47;;;;;;;1.80;1.12;;;0.80;99.90;;;;;;1969170;73;21017;-73
2021/04/07 02:24:13;;;;;;;3.17;1.32;;;0.80;99.90;;;;;;1969366;73;21464;-73
2021/04/07 02:26:39;;;;;;;2.58;2.02;;;0.80;99.90;;;;;;1969135;73;21407;-74
2021/04/07 02:29:06;;;;;;;5.08;1.35;;;0.80;99.90;;;;;;1969271;73;21481;-75
2021/04/07 02:31:34;;;;;;;1.40;1.30;;;0.80;99.90;;;;;;1969105;73;21041;-73
2021/04/07 02:34:00;;;;;;;1.50;1.32;;;0.90;99.90;;;;;;1969300;73;21085;-74
2021/04/07 02:36:26;;;;;;;3.62;1.45;;;0.90;99.90;;;;;;1969179;73;21449;-73
2021/04/07 02:38:52;;;;;;;1.47;1.25;;;0.90;99.90;;;;;;1969202;73;21422;-73
2021/04/07 02:41:18;;;;;;;1.98;1.52;;;0.90;99.90;;;;;;1969282;73;21491;-75
2021/04/07 02:43:44;;;;;;;2.52;1.87;;;0.80;99.90;;;;;;1969390;73;21045;-73
2021/04/07 02:46:10;;;;;;;2.40;1.55;;;0.80;99.90;;;;;;1969231;73;21006;-73
2021/04/07 02:48:36;;;;;;;4.17;1.50;;;0.80;99.90;;;;;;1969250;73;21021;-75
2021/04/07 02:51:02;;;;;;;2.05;1.50;;;0.70;99.90;;;;;;1969394;73;21119;-73
2021/04/07 02:53:28;;;;;;;5.75;1.87;;;0.70;99.90;;;;;;1969320;73;21169;-75
2021/04/07 02:55:55;;;;;;;1.42;1.32;;;0.70;99.90;;;;;;1969497;73;21084;-74
2021/04/07 02:58:21;;;;;;;2.20;1.90;;;0.70;99.90;;;;;;1969498;73;21115;-74
2021/04/07 03:00:47;;;;;;;2.50;1.50;;;0.60;99.90;;;;;;1969699;73;21045;-75
2021/04/07 03:03:13;;;;;;;2.30;1.67;;;0.70;99.90;;;;;;1969632;73;20994;-73
2021/04/07 03:05:39;;;;;;;3.52;1.80;;;0.70;99.90;;;;;;1969565;73;21131;-74
2021/04/07 03:08:05;;;;;;;2.15;1.55;;;0.80;99.90;;;;;;1969178;73;21080;-74
2021/04/07 03:10:31;;;;;;;2.22;1.55;;;0.80;99.90;;;;;;1969313;73;21041;-74
2021/04/07 03:12:57;;;;;;;1.37;1.27;;;0.80;99.90;;;;;;1969146;73;21053;-74
2021/04/07 03:15:24;;;;;;;5.58;1.82;;;0.80;99.90;;;;;;1969299;73;21461;-74
2021/04/07 03:17:50;;;;;;;4.78;2.10;;;0.80;99.90;;;;;;1969198;73;21421;-74
2021/04/07 03:20:16;;;;;;;1.72;1.27;;;0.80;99.90;;;;;;1969526;73;21457;-74
2021/04/07 03:22:42;;;;;;;2.20;1.42;;;0.80;99.90;;;;;;1969391;73;21018;-74
2021/04/07 03:25:08;;;;;;;1.80;1.62;;;0.80;99.90;;;;;;1969479;73;21017;-76
2021/04/07 03:27:34;;;;;;;4.12;1.50;;;0.90;99.90;;;;;;1969537;73;21044;-74
2021/04/07 03:30:01;;;;;;;2.87;1.82;;;0.80;99.90;;;;;;1969430;73;21009;-75
2021/04/07 03:32:27;;;;;;;5.30;1.67;;;0.80;99.90;;;;;;1967197;72;21484;-74
2021/04/07 03:34:53;;;;;;;1.77;1.65;;;0.90;99.90;;;;;;1969464;73;21061;-74
2021/04/07 03:37:20;;;;;;;3.17;1.80;;;0.80;99.90;;;;;;1945263;73;21114;-73
2021/04/07 03:39:46;;;;;;;2.92;1.92;;;0.90;99.90;;;;;;1969380;73;21192;-72
2021/04/07 03:42:12;;;;;;;2.42;2.05;;;1.00;99.90;;;;;;1969317;73;21134;-74
2021/04/07 03:44:38;;;;;;;1.85;1.55;;;0.90;99.90;;;;;;1969317;73;21127;-73
2021/04/07 03:47:04;;;;;;;4.33;1.95;;;0.90;99.90;;;;;;1969438;73;21034;-74
2021/04/07 03:49:31;;;;;;;1.87;1.72;;;0.90;99.90;;;;;;1969171;73;21140;-73
2021/04/07 03:51:57;;;;;;;1.60;1.50;;;0.90;99.90;;;;;;1969211;73;21064;-74
2021/04/07 03:54:25;;;;;;;2.15;1.42;;;0.90;99.90;;;;;;1971568;72;21058;-74
2021/04/07 03:56:51;;;;;;;3.20;2.12;;;0.90;99.90;;;;;;1970602;72;21491;-74
2021/04/07 03:59:17;;;;;;;3.55;1.70;;;0.90;99.90;;;;;;1972489;72;21045;-74
2021/04/07 04:01:43;;;;;;;3.77;1.50;;;0.90;99.90;;;;;;1970315;72;21065;-74
2021/04/07 04:04:10;;;;;;;9.03;1.77;;;1.00;99.90;;;;;;1969156;73;21053;-74
2021/04/07 04:06:36;;;;;;;2.60;1.60;;;1.00;99.90;;;;;;1971681;72;21057;-74
2021/04/07 04:09:03;;;;;;;3.20;1.25;;;1.00;99.90;;;;;;1971238;72;21130;-75
2021/04/07 04:11:29;;;;;;;2.50;1.42;;;1.00;99.90;;;;;;1969133;72;21146;-76
2021/04/07 04:13:55;;;;;;;2.15;1.40;;;1.10;99.90;;;;;;1969165;73;21084;-73
2021/04/07 04:16:21;;;;;;;2.27;1.30;;;1.00;99.90;;;;;;1969287;73;21123;-74
2021/04/07 04:18:49;;;;;;;2.30;1.57;;;1.00;99.90;;;;;;1969000;73;21122;-74
2021/04/07 04:21:15;;;;;;;2.22;1.50;;;1.10;99.90;;;;;;1968878;73;21240;-74
2021/04/07 04:23:41;;;;;;;4.05;1.85;;;1.10;99.90;;;;;;1969195;73;21053;-74
2021/04/07 04:26:07;;;;;;;2.08;1.27;;;1.10;99.90;;;;;;1969110;73;21057;-74
2021/04/07 04:28:33;;;;;;;1.85;1.50;;;1.10;99.90;;;;;;1969239;73;21095;-74
2021/04/07 04:30:59;;;;;;;3.20;1.30;;;1.20;99.90;;;;;;1969270;73;21122;-74
2021/04/07 04:33:25;;;;;;;1.85;1.55;;;1.10;99.90;;;;;;1969307;73;21113;-74
2021/04/07 04:35:57;;;;;;;5.55;1.65;;;1.10;99.90;;;;;;1969179;73;21056;-74
2021/04/07 04:38:21;;;;;;;12.68;1.20;;;1.00;99.90;;;;;;1968601;73;21057;-74
2021/04/07 04:40:47;;;;;;;2.30;1.40;;;1.00;99.90;;;;;;1969253;73;21119;-74
2021/04/07 04:43:13;;;;;;;1.85;1.30;;;1.00;99.90;;;;;;1969355;73;21053;-74
2021/04/07 04:45:39;;;;;;;1.02;0.90;;;1.00;99.90;;;;;;1969424;73;21123;-74
2021/04/07 04:48:05;;;;;;;1.42;1.20;;;1.00;99.90;;;;;;1969419;73;21112;-74
2021/04/07 04:50:31;;;;;;;0.93;0.93;;;1.00;99.90;;;;;;1969482;73;21150;-74
2021/04/07 04:52:57;;;;;;;1.85;1.17;;;1.00;99.90;;;;;;1969116;73;21066;-73
2021/04/07 04:55:23;;;;;;;2.58;1.35;;;0.90;99.90;;;;;;1969311;73;21111;-74
2021/04/07 04:57:50;;;;;;;1.70;1.22;;;0.90;99.90;;;;;;1969200;73;21130;-73
2021/04/07 05:00:16;;;;;;;4.40;1.32;;;0.90;99.90;;;;;;1969430;73;21598;-74
2021/04/07 05:02:42;;;;;;;2.00;1.20;;;0.90;99.90;;;;;;1969270;73;21418;-73
2021/04/07 05:05:08;;;;;;;4.30;1.35;;;0.90;99.90;;;;;;1969352;73;21574;-74
2021/04/07 05:07:34;;;;;;;1.50;1.10;;;1.00;99.90;;;;;;1969235;73;21446;-74
2021/04/07 05:10:00;;;;;;;2.67;1.15;;;1.10;99.90;;;;;;1969541;73;21052;-74
2021/04/07 05:12:26;;;;;;;1.00;0.78;;;1.10;99.90;;;;;;1969179;73;21061;-74
2021/04/07 05:14:52;;;;;;;1.30;1.20;;;1.20;99.90;;;;;;1969376;73;21122;-73
2021/04/07 05:17:19;;;;;;;4.67;1.65;;;1.10;99.90;;;;;;1969354;73;21057;-73
2021/04/07 05:19:45;;;;;;;10.35;1.90;;;1.10;99.90;;;;;;1969407;73;21305;-73
2021/04/07 05:22:11;;;;;;;2.10;0.85;;;1.20;99.90;;;;;;1969183;73;21173;-74
2021/04/07 05:24:37;;;;;;;2.75;0.90;;;1.10;99.90;;;;;;1969431;73;21537;-73
2021/04/07 05:27:03;;;;;;;1.72;0.95;;;1.20;99.90;;;;;;1969526;73;21017;-73
2021/04/07 05:29:29;;;;;;;2.35;1.10;;;1.10;99.90;;;;;;1969571;73;21212;-73
2021/04/07 05:31:55;;;;;;;1.20;1.10;;;1.10;99.90;;;;;;1969461;73;21100;-73
2021/04/07 05:34:22;;;;;;;1.95;0.93;;;1.20;99.90;;;;;;1969496;73;21022;-73
2021/04/07 05:36:48;;;;;;;0.93;0.80;;;1.20;99.90;;;;;;1969478;73;21446;-73
2021/04/07 05:39:14;;;;;;;4.03;1.00;;;1.30;99.90;;;;;;1969406;73;21457;-73
2021/04/07 05:41:40;;;;;;;2.47;1.07;;;1.30;99.90;;;;;;1969475;73;21477;-73
2021/04/07 05:44:06;;;;;;;1.15;0.90;;;1.30;99.90;;;;;;1969631;73;21130;-74
2021/04/07 05:46:33;;;;;;;1.20;1.07;;;1.30;99.90;;;;;;1969566;73;21045;-74
2021/04/07 05:48:59;;;;;;;0.95;0.88;;;1.30;99.90;;;;;;1969387;73;21188;-74
2021/04/07 05:51:25;;;;;;;1.97;0.93;;;1.40;99.90;;;;;;1969402;73;21197;-74
2021/04/07 05:53:51;;;;;;;1.22;0.98;;;1.40;99.90;;;;;;1969294;73;21090;-75
2021/04/07 05:56:17;;;;;;;4.83;1.25;;;1.40;99.90;;;;;;1969643;73;21438;-75
2021/04/07 05:58:44;;;;;;;2.08;1.35;;;1.40;99.90;;;;;;1969868;73;21550;-74
2021/04/07 06:01:10;;;;;;;1.65;1.15;;;1.50;99.90;;;;;;1969834;73;21052;-73
2021/04/07 06:03:36;;;;;;;1.05;0.82;;;1.50;99.90;;;;;;1969864;73;21088;-74
2021/04/07 06:06:02;;;;;;;1.95;1.30;;;1.50;99.90;;;;;;1969877;73;21045;-74
2021/04/07 06:08:28;;;;;;;2.27;1.02;;;1.60;99.90;;;;;;1970970;72;21061;-74
2021/04/07 06:10:54;;;;;;;0.85;0.85;;;1.50;99.90;;;;;;1972003;72;21106;-75
2021/04/07 06:13:20;;;;;;;2.92;1.40;;;1.60;99.90;;;;;;1977345;72;21119;-74
2021/04/07 06:15:48;;;;;;;2.08;1.30;;;1.70;99.90;;;;;;1969980;73;21051;-74
2021/04/07 06:18:14;;;;;;;2.40;1.35;;;1.70;99.90;;;;;;1969990;73;21489;-77
2021/04/07 06:20:40;;;;;;;1.40;1.10;;;1.60;99.90;;;;;;1969782;73;21057;-74
2021/04/07 06:23:06;;;;;;;0.85;0.75;;;1.60;99.90;;;;;;1970010;73;21025;-73
2021/04/07 06:25:33;;;;;;;1.40;1.22;;;1.70;99.90;;;;;;1973505;72;21462;-74
2021/04/07 06:27:59;;;;;;;8.30;1.00;;;1.60;99.90;;;;;;1971870;72;21021;-74
2021/04/07 06:30:40;;;;;;;1.72;1.45;;;1.50;99.90;;;;;;1969994;72;21594;-73
2021/04/07 06:32:53;;;;;;;1.57;0.98;;;1.50;99.90;;;;;;1973843;72;21064;-75
2021/04/07 06:35:19;;;;;;;5.12;1.40;;;1.50;99.90;;;;;;1970083;72;21130;-74
2021/04/07 06:37:45;;;;;;;3.52;1.20;;;1.50;99.90;;;;;;1972134;72;21548;-74
2021/04/07 06:40:11;;;;;;;3.45;1.35;;;1.60;99.90;;;;;;1969699;73;21050;-74
2021/04/07 06:42:37;;;;;;;1.35;1.12;;;1.60;99.90;;;;;;1969924;73;21061;-76
2021/04/07 06:45:03;;;;;;;1.25;1.15;;;1.60;99.90;;;;;;1969711;73;21025;-75
2021/04/07 06:47:29;;;;;;;1.15;0.80;;;1.80;99.90;;;;;;1969939;73;21126;-74
2021/04/07 06:49:55;;;;;;;1.62;0.98;;;1.90;99.90;;;;;;1969700;73;21092;-75
2021/04/07 06:52:22;;;;;;;3.67;1.20;;;1.80;99.90;;;;;;1970069;73;21127;-74
2021/04/07 06:54:48;;;;;;;2.42;0.60;;;1.90;99.90;;;;;;1969949;73;21024;-74
2021/04/07 06:57:15;;;;;;;3.83;1.27;;;1.90;99.90;;;;;;1969919;73;21045;-74
2021/04/07 06:59:43;;;;;;;1.57;1.00;;;2.10;99.90;;;;;;1969914;73;21542;-73
2021/04/07 07:02:09;;;;;;;1.12;0.82;;;2.30;99.90;;;;;;1969690;71;21157;-75
2021/04/07 07:04:35;;;;;;;1.20;0.82;;;2.30;99.90;;;;;;1969863;73;21630;-75
2021/04/07 07:07:01;;;;;;;0.70;0.70;;;2.30;99.90;;;;;;1969737;73;21002;-75
2021/04/07 07:09:28;;;;;;;0.78;0.70;;;2.30;99.90;;;;;;1969791;73;21469;-74
2021/04/07 07:11:54;;;;;;;0.85;0.70;;;2.30;99.90;;;;;;1969746;73;21452;-73
2021/04/07 07:14:20;;;;;;;3.17;1.10;;;2.30;99.90;;;;;;1969928;73;21044;-74
2021/04/07 07:16:46;;;;;;;1.12;0.82;;;2.40;99.90;;;;;;1969846;73;21058;-74
2021/04/07 07:19:12;;;;;;;1.67;0.78;;;2.60;99.90;;;;;;1969784;73;21058;-73
2021/04/07 07:21:38;;;;;;;2.33;0.82;;;2.70;99.90;;;;;;1969897;73;21477;-73
2021/04/07 07:24:04;;;;;;;1.17;0.70;;;2.60;99.90;;;;;;1969948;73;21434;-76
2021/04/07 07:26:31;;;;;;;3.58;1.10;;;2.60;99.90;;;;;;1969848;73;21050;-73
2021/04/07 07:28:59;;;;;;;4.35;0.90;;;2.60;99.90;;;;;;1969843;73;21131;-73
2021/04/07 07:31:25;;;;;;;8.13;0.80;;;2.70;99.90;;;;;;1969663;73;21030;-74
2021/04/07 07:33:51;;;;;;;2.22;0.80;;;2.60;99.90;;;;;;1969819;73;21002;-72
2021/04/07 07:36:17;;;;;;;0.60;0.60;;;2.50;99.90;;;;;;1969919;73;21029;-74
2021/04/07 07:38:43;;;;;;;3.62;0.62;;;2.50;99.90;;;;;;1969821;73;21026;-75
2021/04/07 07:41:09;;;;;;;2.60;1.25;;;2.50;99.90;;;;;;1969872;73;21061;-73
2021/04/07 07:43:35;;;;;;;0.90;0.68;;;2.50;99.90;;;;;;1969802;73;21169;-74
2021/04/07 07:46:01;;;;;;;1.82;0.80;;;2.70;99.90;;;;;;1969917;73;21449;-71
2021/04/07 07:48:32;;;;;;;3.02;1.05;;;2.90;99.90;;;;;;1969734;73;21477;-72
2021/04/07 07:50:57;;;;;;;2.25;0.78;;;3.00;99.90;;;;;;1969503;72;21126;-72
2021/04/07 07:53:24;;;;;;;1.45;0.95;;;3.10;99.90;;;;;;1969871;73;21041;-71
2021/04/07 07:55:50;;;;;;;1.67;0.78;;;3.20;99.90;;;;;;1969874;73;21049;-70
2021/04/07 07:58:16;;;;;;;2.62;1.10;;;3.20;99.90;;;;;;1969613;73;21092;-71
2021/04/07 08:00:42;;;;;;;1.55;0.78;;;3.20;99.90;;;;;;1969880;73;21058;-73
2021/04/07 08:03:09;;;;;;;0.88;0.68;;;3.20;99.90;;;;;;1969701;73;21139;-70
2021/04/07 08:05:35;;;;;;;1.82;1.07;;;3.20;99.90;;;;;;1969763;73;21523;-73
2021/04/07 08:08:02;;;;;;;1.92;1.17;;;3.10;99.90;;;;;;1969867;73;21451;-72
2021/04/07 08:10:29;;;;;;;3.15;1.00;;;2.90;99.90;;;;;;1970041;73;21055;-74
2021/04/07 08:12:55;;;;;;;2.55;1.15;;;2.90;99.90;;;;;;1969903;73;21029;-73
2021/04/07 08:15:21;;;;;;;2.30;0.75;;;2.50;99.90;;;;;;1969896;73;21045;-71
2021/04/07 08:17:47;;;;;;;1.37;0.53;;;2.50;99.90;;;;;;1969934;73;21130;-70
2021/04/07 08:20:13;;;;;;;2.90;0.90;;;2.60;99.90;;;;;;1970076;73;21049;-71
2021/04/07 08:22:39;;;;;;;1.30;0.90;;;2.60;99.90;;;;;;1970189;73;21057;-71
2021/04/07 08:25:06;;;;;;;3.17;0.68;;;2.70;99.90;;;;;;1970107;73;21045;-71
2021/04/07 08:27:32;;;;;;;3.75;1.25;;;2.90;99.90;;;;;;1970079;73;21025;-70
2021/04/07 08:29:58;;;;;;;1.80;0.75;;;3.00;99.90;;;;;;1970095;73;21053;-71
2021/04/07 08:32:24;;;;;;;1.37;0.70;;;2.90;99.90;;;;;;1969952;73;21061;-70
2021/04/07 08:34:50;;;;;;;0.60;0.60;;;3.10;99.90;;;;;;1970032;73;21045;-71
2021/04/07 08:37:19;;;;;;;1.15;0.80;;;3.00;99.90;;;;;;1969847;73;21509;-71
2021/04/07 08:39:44;;;;;;;1.85;0.98;;;3.10;99.90;;;;;;1969774;73;21076;-70
2021/04/07 08:42:11;;;;;;;0.70;0.70;;;3.10;99.90;;;;;;1969768;73;21058;-71
2021/04/07 08:44:37;;;;;;;2.65;0.70;;;3.20;99.90;;;;;;1972297;72;21128;-71
2021/04/07 08:47:04;;;;;;;3.80;1.10;;;3.40;99.90;;;;;;1969709;73;21030;-70
2021/04/07 08:49:30;;;;;;;12.18;0.80;;;3.40;99.90;;;;;;1969798;73;21473;-70
2021/04/07 08:51:56;;;;;;;1.25;0.50;;;3.30;99.90;;;;;;1970013;73;21182;-70
2021/04/07 08:54:22;;;;;;;1.82;0.90;;;3.40;99.90;;;;;;1969965;73;21025;-70
2021/04/07 08:56:48;;;;;;;2.85;0.93;;;3.60;99.90;;;;;;1968978;72;21134;-70
2021/04/07 08:59:16;;;;;;;1.27;0.60;;;3.30;99.90;;;;;;1969996;73;21057;-70
2021/04/07 09:01:42;;;;;;;2.02;0.85;;;3.10;99.90;;;;;;1969617;73;21061;-71
2021/04/07 09:04:10;;;;;;;2.20;0.90;;;2.90;99.90;;;;;;1970015;73;21061;-70
2021/04/07 09:06:36;;;;;;;2.62;1.07;;;2.80;99.90;;;;;;1969782;73;21848;-70
2021/04/07 09:09:02;;;;;;;2.05;0.70;;;2.80;99.90;;;;;;1969957;73;21117;-70
2021/04/07 09:11:28;;;;;;;3.52;0.70;;;2.90;99.90;;;;;;1970001;72;21062;-69
2021/04/07 09:13:59;;;;;;;0.53;0.53;;;3.00;99.90;;;;;;1969740;73;21026;-69
2021/04/07 09:16:22;;;;;;;0.93;0.53;;;3.00;99.90;;;;;;1969282;73;21131;-70
2021/04/07 09:18:48;;;;;;;0.70;0.70;;;3.20;99.90;;;;;;1969995;73;21057;-70
2021/04/07 09:21:14;;;;;;;2.67;1.42;;;3.30;99.90;;;;;;1970075;73;21052;-70
2021/04/07 09:23:41;;;;;;;2.65;0.70;;;3.30;99.90;;;;;;1970094;73;21052;-70
2021/04/07 09:26:07;;;;;;;2.77;0.95;;;3.10;99.90;;;;;;1970094;73;21170;-70
2021/04/07 09:28:33;;;;;;;1.87;0.80;;;2.90;99.90;;;;;;1970005;73;21030;-70
2021/04/07 09:30:59;;;;;;;2.05;0.72;;;2.80;99.90;;;;;;1970113;73;21037;-70
2021/04/07 09:33:25;;;;;;;1.00;0.88;;;2.90;99.90;;;;;;1969902;73;21064;-70
2021/04/07 09:35:51;;;;;;;1.27;1.10;;;3.10;99.90;;;;;;1969862;73;21474;-70
2021/04/07 09:38:17;;;;;;;1.30;0.78;;;3.20;99.90;;;;;;1969857;73;21049;-70
2021/04/07 09:40:43;;;;;;;1.67;0.85;;;3.20;99.90;;;;;;1969905;73;21507;-70
2021/04/07 09:43:10;;;;;;;1.60;0.88;;;3.20;99.90;;;;;;1969863;73;21058;-70
2021/04/07 09:45:37;;;;;;;1.10;0.78;;;3.30;99.90;;;;;;1969912;73;21054;-70
2021/04/07 09:48:03;;;;;;;0.93;0.72;;;3.40;99.90;;;;;;1969918;73;21057;-71
2021/04/07 09:50:29;;;;;;;1.12;0.90;;;3.60;99.90;;;;;;1969868;73;21025;-70
2021/04/07 09:52:55;;;;;;;1.27;0.82;;;3.10;99.90;;;;;;1969868;73;21053;-70
2021/04/07 09:55:22;;;;;;;3.50;0.95;;;3.00;99.90;;;;;;1969853;73;21065;-71
2021/04/07 09:57:48;;;;;;;2.83;1.10;;;3.10;99.90;;;;;;1969973;73;21461;-70
2021/04/07 10:00:14;;;;;;;0.50;0.50;;;3.60;99.90;;;;;;1969731;73;21591;-70
2021/04/07 10:02:40;;;;;;;2.47;1.32;;;3.70;99.90;;;;;;1969945;73;21512;-70
2021/04/07 10:05:06;;;;;;;1.75;0.70;;;3.70;99.90;;;;;;1969746;73;21328;-70
2021/04/07 10:07:34;;;;;;;1.57;0.90;;;4.00;99.90;;;;;;1969773;73;21088;-70
2021/04/07 10:10:00;;;;;;;3.25;0.90;;;4.00;99.90;;;;;;1969814;73;21057;-71
2021/04/07 10:12:26;;;;;;;1.27;0.78;;;4.20;99.90;;;;;;1969879;73;21146;-72
2021/04/07 10:14:54;;;;;;;1.67;0.88;;;4.60;99.90;;;;;;1970532;73;21046;-69
2021/04/07 10:17:20;;;;;;;2.15;0.72;;;4.80;99.90;;;;;;1971229;73;21033;-70
2021/04/07 10:19:46;;;;;;;1.10;0.70;;;5.00;99.90;;;;;;1970569;73;21130;-71
2021/04/07 10:22:20;;;;;;;1.67;0.80;;;5.20;99.90;;;;;;1969713;73;21033;-71
2021/04/07 10:24:43;;;;;;;0.98;0.90;;;5.00;99.90;;;;;;1969164;73;21065;-71
2021/04/07 10:27:09;;;;;;;2.58;0.72;;;4.60;99.90;;;;;;1969740;73;21566;-72
2021/04/07 10:29:38;;;;;;;0.72;0.72;;;4.50;99.90;;;;;;1969972;73;21022;-71
2021/04/07 10:32:04;;;;;;;1.42;0.70;;;4.30;99.90;;;;;;1969706;72;21034;-70
2021/04/07 10:34:30;;;;;;;7.33;1.20;;;4.20;99.90;;;;;;1969786;73;21054;-70
2021/04/07 10:36:56;;;;;;;2.22;0.95;;;4.10;99.90;;;;;;1969921;73;21100;-71
2021/04/07 10:39:23;;;;;;;4.03;0.98;;;4.00;99.90;;;;;;1969918;73;21057;-73
2021/04/07 10:41:49;;;;;;;4.47;1.02;;;4.10;99.90;;;;;;1969762;73;21554;-73
2021/04/07 10:44:15;;;;;;;5.72;1.10;;;4.00;99.90;;;;;;1970035;73;21501;-70
2021/04/07 10:46:41;;;;;;;1.12;0.60;;;3.90;99.90;;;;;;1969833;73;21061;-71
2021/04/07 10:49:07;;;;;;;1.30;0.60;;;3.90;99.90;;;;;;1969837;73;21093;-70
2021/04/07 10:51:33;;;;;;;3.40;0.90;;;3.90;99.90;;;;;;1969817;73;21029;-71
2021/04/07 10:54:00;;;;;;;4.58;1.77;;;3.80;99.90;;;;;;1968377;72;21129;-71
2021/04/07 10:56:26;;;;;;;1.87;0.90;;;3.80;99.90;;;;;;1964682;73;21017;-73
2021/04/07 10:58:52;;;;;;;0.70;0.70;;;3.80;99.90;;;;;;1969846;73;21049;-72
2021/04/07 11:01:18;;;;;;;2.10;0.93;;;3.80;99.90;;;;;;1969706;73;21110;-72
2021/04/07 11:03:44;;;;;;;3.15;0.93;;;3.90;99.90;;;;;;1969870;73;21477;-71
2021/04/07 11:06:10;;;;;;;2.05;0.93;;;3.90;99.90;;;;;;1970005;73;21112;-71
2021/04/07 11:08:36;;;;;;;3.30;1.02;;;3.90;99.90;;;;;;1980817;72;21469;-71
2021/04/07 11:11:03;;;;;;;0.75;0.70;;;3.90;99.90;;;;;;1969589;72;21130;-71
2021/04/07 11:13:29;;;;;;;1.62;0.90;;;4.20;99.90;;;;;;1966326;73;21057;-70
2021/04/07 11:15:55;;;;;;;2.05;0.88;;;4.50;99.90;;;;;;1966511;72;21057;-72
2021/04/07 11:18:22;;;;;;;3.55;0.90;;;5.10;99.90;;;;;;1967614;73;21057;-71
2021/04/07 11:20:48;;;;;;;0.60;0.60;;;5.20;99.90;;;;;;1969817;73;21092;-72
2021/04/07 11:23:14;;;;;;;1.32;0.70;;;5.30;99.90;;;;;;1969795;73;21033;-71
2021/04/07 11:25:41;;;;;;;4.03;1.00;;;5.20;99.90;;;;;;1969842;73;21052;-70
2021/04/07 11:28:07;;;;;;;3.15;0.80;;;5.40;99.90;;;;;;1969778;73;21532;-70
2021/04/07 11:30:42;;;;;;;0.80;0.60;;;5.40;99.90;;;;;;1970131;73;21473;-71
2021/04/07 11:33:02;;;;;;;1.20;0.62;;;5.40;99.90;;;;;;1968395;73;21124;-71
2021/04/07 11:35:37;;;;;;;2.65;0.50;;;5.40;99.90;;;;;;1969816;73;21119;-71
2021/04/07 11:38:04;;;;;;;4.33;0.93;;;5.20;99.90;;;;;;1968909;73;21119;-72
2021/04/07 11:43:09;;;;;;;2.77;0.95;;;5.50;99.90;;;;;;1969842;73;21131;-72
2021/04/07 11:45:31;;;;;;;1.00;0.60;;;5.50;99.90;;;;;;1968852;73;21134;-70
2021/04/07 11:47:57;;;;;;;1.85;1.10;;;5.70;99.90;;;;;;1970021;73;21081;-70
2021/04/07 11:50:23;;;;;;;2.95;1.02;;;5.90;99.90;;;;;;1970043;73;21041;-69
2021/04/07 11:52:49;;;;;;;4.37;1.02;;;6.00;99.90;;;;;;1969937;73;21057;-69
2021/04/07 11:55:15;;;;;;;2.80;1.37;;;6.00;99.90;;;;;;1970010;73;21122;-70
2021/04/07 11:57:41;;;;;;;1.42;0.47;;;6.00;99.90;;;;;;1969980;73;21049;-71
2021/04/07 12:00:07;;;;;;;2.33;0.90;;;5.90;99.90;;;;;;1969851;73;21174;-71
2021/04/07 12:02:35;;;;;;;1.37;0.80;;;5.90;99.90;;;;;;1969919;73;21045;-72
2021/04/07 12:05:01;;;;;;;3.02;0.65;;;5.50;99.90;;;;;;1969495;73;21056;-69
2021/04/07 12:07:27;;;;;;;1.27;0.80;;;5.60;99.90;;;;;;1969500;73;21100;-70
2021/04/07 12:09:54;;;;;;;2.20;0.95;;;5.50;99.90;;;;;;1969679;73;21029;-71
2021/04/07 12:12:20;;;;;;;1.02;0.62;;;5.30;99.90;;;;;;1969601;73;21130;-71
2021/04/07 12:14:46;;;;;;;1.10;0.60;;;5.20;99.90;;;;;;1969541;73;21130;-71
2021/04/07 12:17:12;;;;;;;2.92;0.78;;;5.20;99.90;;;;;;1969251;73;21026;-72
2021/04/07 12:19:38;;;;;;;6.12;0.90;;;5.20;99.90;;;;;;1969224;73;21469;-70
2021/04/07 12:22:04;;;;;;;1.42;1.10;;;4.90;99.90;;;;;;1969341;73;21053;-71
2021/04/07 12:24:30;;;;;;;1.15;0.75;;;4.90;99.90;;;;;;1969152;73;21130;-70
2021/04/07 12:26:56;;;;;;;0.85;0.60;;;4.80;99.90;;;;;;1969266;73;21469;-70
2021/04/07 12:29:23;;;;;;;2.05;1.50;;;4.80;99.90;;;;;;1969213;73;21526;-69
2021/04/07 12:31:49;;;;;;;3.42;1.65;;;4.90;99.90;;;;;;1969197;73;21056;-71
2021/04/07 12:34:15;;;;;;;1.37;0.80;;;4.90;99.90;;;;;;1969144;73;21050;-72
2021/04/07 12:36:41;;;;;;;1.40;0.80;;;4.80;99.90;;;;;;1969168;73;21486;-71
2021/04/07 12:39:07;;;;;;;0.78;0.53;;;5.00;99.90;;;;;;1969215;73;21508;-70
2021/04/07 12:41:50;;;;;;;4.05;0.85;;;5.20;99.90;;;;;;1969304;73;21400;-70
2021/04/07 12:44:01;;;;;;;0.70;0.60;;;5.20;99.90;;;;;;1966015;73;21101;-71
2021/04/07 12:46:27;;;;;;;1.62;0.98;;;4.90;99.90;;;;;;1969440;73;21535;-70
2021/04/07 12:48:54;;;;;;;1.62;0.80;;;5.00;99.90;;;;;;1969390;73;21444;-71
2021/04/07 12:51:20;;;;;;;2.15;0.93;;;5.10;99.90;;;;;;1969373;73;21496;-70
2021/04/07 12:53:46;;;;;;;3.10;1.12;;;5.00;99.90;;;;;;1969406;73;21049;-69